createdAt,value
2022-10-08T00:01:15.991Z,101523.56
2022-10-08T00:03:48.395Z,101523.91
2022-10-08T00:06:17.736Z,101526.84
2022-10-08T00:08:49.390Z,101519.97
2022-10-08T00:11:21.822Z,101528.09
2022-10-08T00:13:50.460Z,101530.03
2022-10-08T00:16:24.376Z,101523.09
2022-10-08T00:18:54.164Z,101527.75
2022-10-08T00:21:25.677Z,101532.38
2022-10-08T00:23:53.218Z,101525.66
2022-10-08T00:26:24.341Z,101525.66
2022-10-08T00:28:56.949Z,101526.56
2022-10-08T00:31:36.246Z,101535.53
2022-10-08T00:34:06.032Z,101528.09
2022-10-08T00:36:34.700Z,101529.09
2022-10-08T00:39:07.774Z,101532.13
2022-10-08T00:41:37.296Z,101526.34
2022-10-08T00:44:42.026Z,101537.47
2022-10-08T00:47:19.391Z,101533.38
2022-10-08T00:49:49.370Z,101537.63
2022-10-08T00:52:18.292Z,101538.47
2022-10-08T00:54:46.008Z,101537.81
2022-10-08T00:57:13.250Z,101540.97
2022-10-08T00:59:40.514Z,101538.34
2022-10-08T01:02:09.064Z,101535.91
2022-10-08T01:04:37.868Z,101531.19
2022-10-08T01:07:19.057Z,101531.84
2022-10-08T01:10:08.717Z,101523.38
2022-10-08T01:12:54.807Z,101530.91
2022-10-08T01:15:36.764Z,101531.41
2022-10-08T01:18:13.724Z,101535.50
2022-10-08T01:20:45.487Z,101531.63
2022-10-08T01:23:12.710Z,101534.56
2022-10-08T01:25:58.467Z,101533.06
2022-10-08T01:28:36.785Z,101535.41
2022-10-08T01:31:10.972Z,101524.16
2022-10-08T01:33:45.614Z,101523.16
2022-10-08T01:36:14.731Z,101517.78
2022-10-08T01:38:46.917Z,101520.56
2022-10-08T01:41:15.169Z,101518.25
2022-10-08T01:43:46.343Z,101519.91
2022-10-08T01:46:20.434Z,101514.38
2022-10-08T01:48:49.769Z,101518.34
2022-10-08T01:51:27.771Z,101510.81
2022-10-08T01:53:55.999Z,101524.31
2022-10-08T01:56:27.477Z,101518.09
2022-10-08T01:58:59.175Z,101508.97
2022-10-08T02:01:37.240Z,101510.41
2022-10-08T02:04:23.400Z,101508.66
2022-10-08T02:06:57.898Z,101499.97
2022-10-08T02:09:29.213Z,101501.59
2022-10-08T02:11:57.561Z,101505.03
2022-10-08T02:14:26.597Z,101504.31
2022-10-08T02:17:03.672Z,101508.47
2022-10-08T02:19:53.035Z,101516.31
2022-10-08T02:22:25.742Z,101519.44
2022-10-08T02:25:01.012Z,101517.31
2022-10-08T02:27:38.049Z,101514.69
2022-10-08T02:30:10.078Z,101516.09
2022-10-08T02:32:49.300Z,101513.88
2022-10-08T02:35:30.127Z,101516.34
2022-10-08T02:38:05.401Z,101517.28
2022-10-08T02:40:33.551Z,101516.94
2022-10-08T02:43:07.257Z,101507.16
2022-10-08T02:45:44.028Z,101513.56
2022-10-08T02:48:16.438Z,101514.41
2022-10-08T02:50:44.606Z,101518.53
2022-10-08T02:53:16.035Z,101518.78
2022-10-08T02:56:08.249Z,101514.41
2022-10-08T02:58:35.800Z,101511.91
2022-10-08T03:01:28.688Z,101515.06
2022-10-08T03:04:00.645Z,101513.84
2022-10-08T03:06:28.374Z,101510.75
2022-10-08T03:08:58.169Z,101504.72
2022-10-08T03:11:26.185Z,101505.88
2022-10-08T03:13:58.545Z,101508.34
2022-10-08T03:16:42.645Z,101508.66
2022-10-08T03:19:12.227Z,101507.34
2022-10-08T03:21:40.930Z,101516.00
2022-10-08T03:24:13.005Z,101514.34
2022-10-08T03:26:40.652Z,101516.13
2022-10-08T03:29:09.149Z,101518.41
2022-10-08T03:31:36.843Z,101525.56
2022-10-08T03:34:04.319Z,101525.97
2022-10-08T03:36:31.876Z,101520.75
2022-10-08T03:38:59.155Z,101523.78
2022-10-08T03:41:26.554Z,101528.47
2022-10-08T03:43:53.841Z,101538.13
2022-10-08T03:46:21.188Z,101540.53
2022-10-08T03:48:49.893Z,101539.00
2022-10-08T03:51:18.602Z,101549.56
2022-10-08T03:53:46.076Z,101544.91
2022-10-08T03:56:16.556Z,101552.72
2022-10-08T03:58:44.181Z,101555.78
2022-10-08T04:01:14.747Z,101559.09
2022-10-08T04:03:42.488Z,101560.38
2022-10-08T04:06:09.923Z,101552.31
2022-10-08T04:08:37.644Z,101560.88
2022-10-08T04:11:06.749Z,101570.38
2022-10-08T04:13:34.979Z,101568.13
2022-10-08T04:16:07.034Z,101562.31
2022-10-08T04:18:35.042Z,101565.97
2022-10-08T04:21:04.741Z,101570.72
2022-10-08T04:23:34.492Z,101571.56
2022-10-08T04:26:01.807Z,101569.94
2022-10-08T04:28:29.685Z,101569.91
2022-10-08T04:31:02.199Z,101581.31
2022-10-08T04:33:34.957Z,101595.53
2022-10-08T04:36:06.964Z,101592.94
2022-10-08T04:38:34.287Z,101597.31
2022-10-08T04:41:03.933Z,101591.88
2022-10-08T04:43:31.356Z,101586.63
2022-10-08T04:45:58.650Z,101597.53
2022-10-08T04:48:25.965Z,101587.81
2022-10-08T04:50:57.572Z,101608.03
2022-10-08T04:53:28.145Z,101609.47
2022-10-08T04:55:56.399Z,101611.50
2022-10-08T04:58:25.694Z,101607.53
2022-10-08T05:00:52.903Z,101611.59
2022-10-08T05:03:20.210Z,101622.47
2022-10-08T05:05:47.436Z,101615.56
2022-10-08T05:08:14.713Z,101615.75
2022-10-08T05:10:48.096Z,101620.81
2022-10-08T05:13:15.363Z,101613.88
2022-10-08T05:15:42.613Z,101623.97
2022-10-08T05:18:09.948Z,101618.13
2022-10-08T05:20:37.331Z,101628.84
2022-10-08T05:23:04.605Z,101637.72
2022-10-08T05:25:32.656Z,101630.25
2022-10-08T05:28:00.262Z,101639.22
2022-10-08T05:30:27.697Z,101628.06
2022-10-08T05:32:55.352Z,101630.38
2022-10-08T05:35:22.603Z,101634.78
2022-10-08T05:37:49.812Z,101632.94
2022-10-08T05:40:17.215Z,101644.00
2022-10-08T05:42:44.546Z,101645.72
2022-10-08T05:45:12.207Z,101650.81
2022-10-08T05:47:39.675Z,101647.72
2022-10-08T05:50:07.559Z,101650.97
2022-10-08T05:52:34.835Z,101649.47
2022-10-08T05:55:02.058Z,101641.06
2022-10-08T05:57:29.320Z,101648.25
2022-10-08T05:59:56.611Z,101649.00
2022-10-08T06:02:23.943Z,101651.13
2022-10-08T06:04:51.332Z,101653.28
2022-10-08T06:07:18.631Z,101658.84
2022-10-08T06:09:46.146Z,101666.38
2022-10-08T06:12:14.142Z,101662.22
2022-10-08T06:14:41.409Z,101668.22
2022-10-08T06:17:08.896Z,101664.50
2022-10-08T06:19:37.253Z,101662.50
2022-10-08T06:22:05.009Z,101664.38
2022-10-08T06:24:32.353Z,101663.38
2022-10-08T06:26:59.662Z,101676.31
2022-10-08T06:29:26.984Z,101688.38
2022-10-08T06:31:54.274Z,101695.03
2022-10-08T06:34:21.697Z,101691.38
2022-10-08T06:36:49.038Z,101696.06
2022-10-08T06:39:17.911Z,101692.13
2022-10-08T06:41:45.664Z,101706.25
2022-10-08T06:44:14.527Z,101707.03
2022-10-08T06:46:42.651Z,101709.28
2022-10-08T06:49:11.150Z,101708.31
2022-10-08T06:51:38.463Z,101715.03
2022-10-08T06:54:08.317Z,101713.00
2022-10-08T06:56:36.773Z,101715.66
2022-10-08T06:59:05.342Z,101715.84
2022-10-08T07:01:34.417Z,101727.13
2022-10-08T07:04:02.579Z,101727.81
2022-10-08T07:06:29.939Z,101727.31
2022-10-08T07:08:59.244Z,101729.91
2022-10-08T07:11:27.032Z,101734.19
2022-10-08T07:13:55.123Z,101740.75
2022-10-08T07:16:24.475Z,101746.63
2022-10-08T07:18:53.428Z,101758.78
2022-10-08T07:21:21.989Z,101758.66
2022-10-08T07:23:49.569Z,101760.59
2022-10-08T07:26:19.095Z,101763.94
2022-10-08T07:28:58.095Z,101761.66
2022-10-08T07:31:31.276Z,101766.28
2022-10-08T07:34:00.039Z,101768.72
2022-10-08T07:36:28.509Z,101779.69
2022-10-08T07:39:13.689Z,101778.69
2022-10-08T07:41:41.555Z,101782.41
2022-10-08T07:44:11.130Z,101787.41
2022-10-08T07:46:42.663Z,101786.63
2022-10-08T07:49:09.854Z,101785.13
2022-10-08T07:51:37.259Z,101795.31
2022-10-08T07:54:08.485Z,101797.34
2022-10-08T07:56:36.384Z,101795.50
2022-10-08T07:59:04.765Z,101808.00
2022-10-08T08:01:33.319Z,101800.53
2022-10-08T08:04:03.233Z,101809.28
2022-10-08T08:06:31.790Z,101803.56
2022-10-08T08:09:02.256Z,101812.25
2022-10-08T08:11:29.935Z,101812.75
2022-10-08T08:13:57.330Z,101808.09
2022-10-08T08:16:26.649Z,101820.22
2022-10-08T08:18:56.103Z,101821.78
2022-10-08T08:21:37.188Z,101823.59
2022-10-08T08:24:06.639Z,101833.22
2022-10-08T08:26:36.711Z,101838.56
2022-10-08T08:29:05.528Z,101835.34
2022-10-08T08:31:39.033Z,101844.00
2022-10-08T08:34:08.827Z,101847.75
2022-10-08T08:36:39.369Z,101846.66
2022-10-08T08:39:08.890Z,101844.72
2022-10-08T08:42:07.293Z,101856.94
2022-10-08T08:44:38.202Z,101854.88
2022-10-08T08:47:20.490Z,101851.28
2022-10-08T08:49:52.653Z,101857.66
2022-10-08T08:52:23.732Z,101866.81
2022-10-08T08:54:53.296Z,101874.69
2022-10-08T08:57:38.725Z,101867.41
2022-10-08T09:00:11.461Z,101875.00
2022-10-08T09:02:56.131Z,101867.22
2022-10-08T09:05:25.226Z,101871.75
2022-10-08T09:07:59.770Z,101879.81
2022-10-08T09:10:36.977Z,101880.03
2022-10-08T09:13:04.327Z,101884.34
2022-10-08T09:15:36.489Z,101882.91
2022-10-08T09:18:04.852Z,101884.91
2022-10-08T09:20:35.635Z,101886.72
2022-10-08T09:23:29.439Z,101884.41
2022-10-08T09:26:00.636Z,101885.63
2022-10-08T09:28:54.729Z,101884.00
2022-10-08T09:31:29.700Z,101897.28
2022-10-08T09:34:17.362Z,101890.84
2022-10-08T09:37:05.072Z,101896.28
2022-10-08T09:39:37.361Z,101899.25
2022-10-08T09:42:07.518Z,101902.88
2022-10-08T09:44:40.752Z,101913.09
2022-10-08T09:47:12.366Z,101913.31
2022-10-08T09:49:40.191Z,101907.56
2022-10-08T09:52:26.954Z,101915.00
2022-10-08T09:55:02.493Z,101903.66
2022-10-08T09:57:30.766Z,101910.97
2022-10-08T10:00:00.776Z,101903.94
2022-10-08T10:02:31.317Z,101905.38
2022-10-08T10:04:59.684Z,101904.78
2022-10-08T10:07:47.620Z,101903.66
2022-10-08T10:10:20.207Z,101906.59
2022-10-08T10:12:53.332Z,101905.38
2022-10-08T10:15:46.558Z,101906.75
2022-10-08T10:18:17.499Z,101916.44
2022-10-08T10:20:48.497Z,101914.69
2022-10-08T10:23:20.021Z,101912.97
2022-10-08T10:25:57.493Z,101908.16
2022-10-08T10:28:40.608Z,101907.47
2022-10-08T10:31:16.869Z,101909.09
2022-10-08T10:33:54.610Z,101908.19
2022-10-08T10:36:23.176Z,101915.63
2022-10-08T10:39:06.473Z,101914.19
2022-10-08T10:41:43.200Z,101908.38
2022-10-08T10:44:11.648Z,101908.66
2022-10-08T10:46:44.971Z,101916.75
2022-10-08T10:49:21.267Z,101917.66
2022-10-08T10:52:33.582Z,101915.78
2022-10-08T10:55:23.553Z,101914.06
2022-10-08T10:58:19.968Z,101913.84
2022-10-08T11:00:55.614Z,101918.78
2022-10-08T11:03:42.986Z,101916.53
2022-10-08T11:06:39.242Z,101917.97
2022-10-08T11:09:09.187Z,101919.63
2022-10-08T11:11:41.463Z,101921.72
2022-10-08T11:14:21.024Z,101915.94
2022-10-08T11:16:51.154Z,101910.31
2022-10-08T11:19:25.640Z,101916.72
2022-10-08T11:22:10.667Z,101917.03
2022-10-08T11:24:53.143Z,101914.75
2022-10-08T11:27:22.594Z,101915.13
2022-10-08T11:30:04.655Z,101913.19
2022-10-08T11:32:33.943Z,101910.66
2022-10-08T11:35:11.863Z,101912.50
2022-10-08T11:37:55.101Z,101910.56
2022-10-08T11:40:35.447Z,101910.16
2022-10-08T11:43:11.257Z,101905.41
2022-10-08T11:45:44.233Z,101905.59
2022-10-08T11:48:25.408Z,101903.53
2022-10-08T11:50:52.758Z,101891.84
2022-10-08T11:53:21.452Z,101889.72
2022-10-08T11:55:59.156Z,101893.47
2022-10-08T11:58:30.363Z,101889.72
2022-10-08T12:01:09.079Z,101893.00
2022-10-08T12:03:39.291Z,101884.97
2022-10-08T12:06:26.081Z,101874.50
2022-10-08T12:09:05.562Z,101884.00
2022-10-08T12:11:32.717Z,101883.84
2022-10-08T12:14:12.351Z,101877.44
2022-10-08T12:16:48.860Z,101858.47
2022-10-08T12:19:34.902Z,101871.56
2022-10-08T12:22:14.794Z,101875.13
2022-10-08T12:24:50.058Z,101873.38
2022-10-08T12:27:18.001Z,101865.19
2022-10-08T12:30:08.008Z,101860.75
2022-10-08T12:32:44.771Z,101857.44
2022-10-08T12:35:28.811Z,101867.59
2022-10-08T12:38:19.945Z,101861.88
2022-10-08T12:41:02.711Z,101858.91
2022-10-08T12:43:45.194Z,101854.16
2022-10-08T12:46:34.257Z,101855.63
2022-10-08T12:49:23.808Z,101854.94
2022-10-08T12:52:03.521Z,101846.28
2022-10-08T12:54:31.478Z,101842.09
2022-10-08T12:56:59.868Z,101839.47
2022-10-08T12:59:32.196Z,101831.09
2022-10-08T13:01:59.552Z,101835.84
2022-10-08T13:04:30.041Z,101833.41
2022-10-08T13:07:00.662Z,101828.88
2022-10-08T13:09:33.629Z,101834.69
2022-10-08T13:12:05.785Z,101826.41
2022-10-08T13:14:36.359Z,101817.69
2022-10-08T13:17:04.331Z,101831.59
2022-10-08T13:19:37.695Z,101826.72
2022-10-08T13:22:23.817Z,101824.44
2022-10-08T13:24:51.229Z,101829.75
2022-10-08T13:27:45.252Z,101832.50
2022-10-08T13:30:28.228Z,101825.75
2022-10-08T13:33:05.683Z,101826.56
2022-10-08T13:35:35.766Z,101824.56
2022-10-08T13:38:07.334Z,101817.56
2022-10-08T13:40:34.965Z,101820.31
2022-10-08T13:43:02.181Z,101818.56
2022-10-08T13:45:36.641Z,101816.06
2022-10-08T13:48:04.568Z,101820.34
2022-10-08T13:50:32.297Z,101815.28
2022-10-08T13:53:00.615Z,101819.91
2022-10-08T13:55:36.153Z,101820.06
2022-10-08T13:58:05.693Z,101819.44
2022-10-08T14:00:35.725Z,101827.06
2022-10-08T14:03:03.432Z,101818.53
2022-10-08T14:05:34.080Z,101813.97
2022-10-08T14:08:05.828Z,101806.50
2022-10-08T14:10:33.586Z,101802.56
2022-10-08T14:13:00.957Z,101798.38
2022-10-08T14:15:35.131Z,101799.19
2022-10-08T14:18:08.038Z,101795.28
2022-10-08T14:20:36.567Z,101794.34
2022-10-08T14:23:03.873Z,101795.06
2022-10-08T14:25:31.953Z,101789.56
2022-10-08T14:27:59.803Z,101788.13
2022-10-08T14:30:28.103Z,101784.28
2022-10-08T14:32:55.657Z,101789.53
2022-10-08T14:35:23.233Z,101791.88
2022-10-08T14:37:50.699Z,101790.75
2022-10-08T14:40:21.503Z,101800.94
2022-10-08T14:42:49.919Z,101800.25
2022-10-08T14:45:17.759Z,101789.59
2022-10-08T14:47:45.225Z,101801.47
2022-10-08T14:50:13.536Z,101799.47
2022-10-08T14:52:44.347Z,101796.06
2022-10-08T14:55:13.395Z,101799.34
2022-10-08T14:57:40.728Z,101804.88
2022-10-08T15:03:16.521Z,101787.66
2022-10-08T15:05:43.867Z,101800.13
2022-10-08T15:08:11.228Z,101801.19
2022-10-08T15:10:38.452Z,101787.50
2022-10-08T15:13:05.717Z,101793.84
2022-10-08T15:15:32.958Z,101792.28
2022-10-08T15:18:00.175Z,101789.00
2022-10-08T15:20:27.448Z,101795.47
2022-10-08T15:22:54.679Z,101792.03
2022-10-08T15:25:22.014Z,101790.41
2022-10-08T15:27:49.266Z,101793.06
2022-10-08T15:30:16.901Z,101791.09
2022-10-08T15:32:44.142Z,101780.47
2022-10-08T15:35:12.226Z,101777.09
2022-10-08T15:37:39.821Z,101783.31
2022-10-08T15:40:07.490Z,101784.06
2022-10-08T15:42:34.873Z,101790.41
2022-10-08T15:45:02.197Z,101784.75
2022-10-08T15:47:29.642Z,101790.66
2022-10-08T15:49:56.938Z,101785.75
2022-10-08T15:52:24.269Z,101788.38
2022-10-08T15:54:51.506Z,101787.34
2022-10-08T15:57:19.195Z,101782.63
2022-10-08T15:59:46.649Z,101785.47
2022-10-08T16:02:17.586Z,101788.25
2022-10-08T16:04:46.953Z,101785.91
2022-10-08T16:07:14.351Z,101781.66
2022-10-08T16:09:41.693Z,101792.28
2022-10-08T16:12:09.004Z,101799.44
2022-10-08T16:14:36.394Z,101795.81
2022-10-08T16:17:03.855Z,101788.53
2022-10-08T16:19:31.309Z,101800.78
2022-10-08T16:21:58.787Z,101798.88
2022-10-08T16:24:26.129Z,101801.03
2022-10-08T16:26:53.392Z,101812.34
2022-10-08T16:29:20.816Z,101813.41
2022-10-08T16:31:48.502Z,101805.69
2022-10-08T16:34:20.522Z,101808.09
2022-10-08T16:36:48.396Z,101809.66
2022-10-08T16:39:18.145Z,101809.94
2022-10-08T16:41:45.638Z,101810.53
2022-10-08T16:44:15.354Z,101818.31
2022-10-08T16:46:45.288Z,101808.22
2022-10-08T16:49:22.779Z,101812.44
2022-10-08T16:51:56.325Z,101812.72
2022-10-08T16:54:23.979Z,101813.50
2022-10-08T16:56:51.331Z,101816.47
2022-10-08T16:59:21.102Z,101820.84
2022-10-08T17:01:50.818Z,101817.56
2022-10-08T17:04:18.430Z,101818.06
2022-10-08T17:06:45.740Z,101822.53
2022-10-08T17:09:13.238Z,101819.09
2022-10-08T17:11:41.800Z,101820.09
2022-10-08T17:14:10.375Z,101824.34
2022-10-08T17:16:38.391Z,101827.81
2022-10-08T17:19:06.167Z,101831.53
2022-10-08T17:21:35.025Z,101835.50
2022-10-08T17:24:03.168Z,101836.19
2022-10-08T17:26:31.141Z,101839.75
2022-10-08T17:29:03.193Z,101839.13
2022-10-08T17:31:31.758Z,101838.00
2022-10-08T17:33:59.788Z,101833.88
2022-10-08T17:36:29.416Z,101836.03
2022-10-08T17:38:58.621Z,101838.63
2022-10-08T17:41:33.759Z,101848.59
2022-10-08T17:44:02.923Z,101853.03
2022-10-08T17:46:35.008Z,101850.94
2022-10-08T17:49:02.505Z,101854.53
2022-10-08T17:51:30.559Z,101857.78
2022-10-08T17:54:00.480Z,101867.16
2022-10-08T17:56:28.322Z,101862.56
2022-10-08T17:58:55.922Z,101870.25
2022-10-08T18:01:28.610Z,101861.41
2022-10-08T18:03:58.366Z,101860.09
2022-10-08T18:06:26.868Z,101863.88
2022-10-08T18:08:58.999Z,101868.59
2022-10-08T18:11:28.057Z,101875.16
2022-10-08T18:13:55.633Z,101886.44
2022-10-08T18:16:23.119Z,101878.44
2022-10-08T18:18:50.355Z,101882.38
2022-10-08T18:21:18.641Z,101880.88
2022-10-08T18:23:48.722Z,101882.50
2022-10-08T18:26:27.380Z,101888.53
2022-10-08T18:28:59.494Z,101891.50
2022-10-08T18:31:31.053Z,101891.03
2022-10-08T18:34:00.818Z,101884.47
2022-10-08T18:36:30.045Z,101884.16
2022-10-08T18:38:59.476Z,101887.25
2022-10-08T18:41:29.037Z,101893.63
2022-10-08T18:43:57.119Z,101894.88
2022-10-08T18:46:24.630Z,101897.81
2022-10-08T18:48:51.969Z,101901.97
2022-10-08T18:51:21.702Z,101897.66
2022-10-08T18:53:49.770Z,101894.06
2022-10-08T18:56:38.662Z,101900.41
2022-10-08T18:59:08.014Z,101893.91
2022-10-08T19:01:37.434Z,101899.00
2022-10-08T19:04:07.449Z,101904.09
2022-10-08T19:06:37.328Z,101901.31
2022-10-08T19:09:06.252Z,101903.31
2022-10-08T19:11:44.337Z,101902.97
2022-10-08T19:14:14.873Z,101906.06
2022-10-08T19:16:42.796Z,101907.47
2022-10-08T19:19:24.293Z,101899.34
2022-10-08T19:21:52.260Z,101900.38
2022-10-08T19:24:21.406Z,101900.03
2022-10-08T19:26:48.724Z,101907.53
2022-10-08T19:29:24.340Z,101913.94
2022-10-08T19:31:52.092Z,101910.31
2022-10-08T19:34:21.789Z,101908.75
2022-10-08T19:36:49.632Z,101908.22
2022-10-08T19:39:19.527Z,101915.22
2022-10-08T19:41:47.161Z,101909.06
2022-10-08T19:44:15.881Z,101907.78
2022-10-08T19:46:43.366Z,101912.19
2022-10-08T19:49:11.393Z,101905.47
2022-10-08T19:51:39.096Z,101900.78
2022-10-08T19:54:06.797Z,101900.34
2022-10-08T19:56:35.821Z,101903.47
2022-10-08T19:59:03.340Z,101910.97
2022-10-08T20:01:33.507Z,101909.97
2022-10-08T20:04:01.212Z,101905.53
2022-10-08T20:06:31.133Z,101910.47
2022-10-08T20:09:01.122Z,101909.81
2022-10-08T20:11:30.324Z,101903.28
2022-10-08T20:13:58.617Z,101905.59
2022-10-08T20:16:31.668Z,101910.16
2022-10-08T20:19:01.222Z,101913.25
2022-10-08T20:21:30.060Z,101906.69
2022-10-08T20:23:57.517Z,101917.47
2022-10-08T20:26:37.079Z,101922.69
2022-10-08T20:29:05.498Z,101912.72
2022-10-08T20:31:39.183Z,101907.47
2022-10-08T20:34:13.388Z,101907.69
2022-10-08T20:36:40.813Z,101904.19
2022-10-08T20:39:08.200Z,101912.69
2022-10-08T20:41:35.509Z,101909.41
2022-10-08T20:44:04.057Z,101912.84
2022-10-08T20:46:33.119Z,101907.78
2022-10-08T20:49:00.632Z,101908.41
2022-10-08T20:51:29.355Z,101911.59
2022-10-08T20:54:01.891Z,101910.31
2022-10-08T20:56:30.396Z,101915.47
2022-10-08T20:58:57.773Z,101919.13
2022-10-08T21:01:37.539Z,101905.13
2022-10-08T21:04:06.259Z,101917.03
2022-10-08T21:06:39.971Z,101915.94
2022-10-08T21:09:08.029Z,101920.03
2022-10-08T21:11:36.213Z,101914.47
2022-10-08T21:14:04.495Z,101916.66
2022-10-08T21:16:34.559Z,101921.78
2022-10-08T21:19:03.879Z,101915.28
2022-10-08T21:21:32.951Z,101922.94
2022-10-08T21:24:00.645Z,101916.41
2022-10-08T21:26:29.425Z,101924.09
2022-10-08T21:28:58.812Z,101911.34
2022-10-08T21:31:27.075Z,101913.69
2022-10-08T21:33:54.849Z,101912.88
2022-10-08T21:36:24.816Z,101914.91
2022-10-08T21:38:52.157Z,101916.66
2022-10-08T21:41:22.046Z,101917.91
2022-10-08T21:43:51.784Z,101919.13
2022-10-08T21:46:24.911Z,101912.97
2022-10-08T21:49:00.523Z,101912.47
2022-10-08T21:51:29.352Z,101925.69
2022-10-08T21:53:58.209Z,101916.03
2022-10-08T21:56:27.463Z,101918.72
2022-10-08T21:58:58.101Z,101913.44
2022-10-08T22:01:28.426Z,101912.19
2022-10-08T22:03:59.705Z,101912.38
2022-10-08T22:06:32.729Z,101912.94
2022-10-08T22:09:00.260Z,101912.00
2022-10-08T22:11:27.679Z,101908.16
2022-10-08T22:13:54.893Z,101912.53
2022-10-08T22:16:23.019Z,101906.59
2022-10-08T22:18:50.487Z,101912.91
2022-10-08T22:21:19.801Z,101903.25
2022-10-08T22:23:47.480Z,101893.91
2022-10-08T22:26:20.218Z,101895.50
2022-10-08T22:28:48.102Z,101895.69
2022-10-08T22:31:16.776Z,101891.28
2022-10-08T22:33:44.394Z,101891.06
2022-10-08T22:36:18.215Z,101889.47
2022-10-08T22:38:46.220Z,101884.63
2022-10-08T22:41:19.431Z,101888.97
2022-10-08T22:43:46.761Z,101889.66
2022-10-08T22:46:18.353Z,101889.56
2022-10-08T22:48:46.445Z,101890.34
2022-10-08T22:51:16.597Z,101885.91
2022-10-08T22:53:43.871Z,101885.59
2022-10-08T22:56:14.350Z,101880.22
2022-10-08T22:58:41.791Z,101883.59
2022-10-08T23:01:11.091Z,101874.88
2022-10-08T23:03:38.745Z,101879.13
2022-10-08T23:06:22.167Z,101872.31
2022-10-08T23:08:53.960Z,101881.56
2022-10-08T23:11:21.173Z,101870.78
2022-10-08T23:13:55.625Z,101865.56
2022-10-08T23:16:24.645Z,101873.03
2022-10-08T23:18:54.274Z,101867.56
2022-10-08T23:21:21.964Z,101865.97
2022-10-08T23:23:49.961Z,101867.59
2022-10-08T23:26:18.134Z,101866.97
2022-10-08T23:28:50.163Z,101861.63
2022-10-08T23:31:22.519Z,101866.16
2022-10-08T23:33:51.520Z,101865.94
2022-10-08T23:36:23.891Z,101859.44
2022-10-08T23:38:51.546Z,101864.41
2022-10-08T23:41:19.314Z,101853.25
2022-10-08T23:43:47.982Z,101856.97
2022-10-08T23:46:16.899Z,101853.63
2022-10-08T23:48:44.312Z,101846.69
2022-10-08T23:51:13.067Z,101850.94
2022-10-08T23:53:42.638Z,101847.56
2022-10-08T23:56:10.571Z,101837.63
2022-10-08T23:58:38.218Z,101847.53
